Terminal Aerodrome Forecast
Issued by NWS

Home | Current Version | Previous Version | Text Only | Print | Product List | Glossary On
Versions: 1 2 3 4 5 6 7 8 9 10 11 12 13 14
000
FTUS45 KREV 220527
TAFMMH
TAF
KMMH 220527Z 2206/2306 VRB04KT P6SM SCT120 SCT180
     FM222100 15008KT P6SM VCTS SCT080CB
     FM230100 29007KT P6SM VCTS SCT080CB=

USA.gov is the U.S. government's official web portal to all federal, state and local government web resources and services.